createdAt,value
2022-09-04T00:02:31.986Z,98845.34
2022-09-04T00:05:10.578Z,98857.84
2022-09-04T00:07:48.003Z,98859.72
2022-09-04T00:10:38.873Z,98851.94
2022-09-04T00:13:11.645Z,98860.41
2022-09-04T00:15:57.952Z,98856.03
2022-09-04T00:18:41.449Z,98867.97
2022-09-04T00:21:07.888Z,98862.88
2022-09-04T00:23:44.966Z,98863.88
2022-09-04T00:26:27.690Z,98872.94
2022-09-04T00:28:59.010Z,98867.63
2022-09-04T00:31:38.844Z,98867.84
2022-09-04T00:34:46.054Z,98868.06
2022-09-04T00:37:20.401Z,98875.06
2022-09-04T00:40:14.396Z,98875.63
2022-09-04T00:43:13.256Z,98871.09
2022-09-04T00:46:18.617Z,98876.69
2022-09-04T00:49:03.296Z,98877.94
2022-09-04T00:51:41.647Z,98885.59
2022-09-04T00:54:26.902Z,98882.59
2022-09-04T00:57:18.547Z,98882.25
2022-09-04T00:59:59.960Z,98893.78
2022-09-04T01:02:41.707Z,98899.00
2022-09-04T01:09:58.068Z,98911.63
2022-09-04T01:12:51.188Z,98905.72
2022-09-04T01:15:41.849Z,98904.09
2022-09-04T01:18:14.995Z,98903.75
2022-09-04T01:21:10.567Z,98906.19
2022-09-04T01:23:52.111Z,98908.84
2022-09-04T01:26:32.924Z,98913.94
2022-09-04T01:29:21.197Z,98909.28
2022-09-04T01:31:58.757Z,98919.16
2022-09-04T01:34:35.587Z,98910.59
2022-09-04T01:37:41.192Z,98912.88
2022-09-04T01:40:56.510Z,98910.06
2022-09-04T01:43:24.165Z,98915.88
2022-09-04T01:46:21.168Z,98914.22
2022-09-04T01:49:01.348Z,98909.13
2022-09-04T01:51:56.782Z,98918.38
2022-09-04T01:54:42.913Z,98918.38
2022-09-04T01:57:24.569Z,98916.78
2022-09-04T02:00:33.933Z,98916.66
2022-09-04T02:03:22.526Z,98925.78
2022-09-04T02:06:10.590Z,98923.78
2022-09-04T02:08:55.894Z,98920.88
2022-09-04T02:11:29.593Z,98924.59
2022-09-04T02:14:08.640Z,98924.59
2022-09-04T02:16:56.301Z,98922.97
2022-09-04T02:19:41.194Z,98922.38
2022-09-04T02:22:26.357Z,98920.50
2022-09-04T02:25:02.400Z,98927.25
2022-09-04T02:28:08.930Z,98928.06
2022-09-04T02:30:49.329Z,98928.88
2022-09-04T02:34:05.168Z,98932.84
2022-09-04T02:36:50.147Z,98941.63
2022-09-04T02:39:44.449Z,98938.16
2022-09-04T02:42:25.782Z,98934.69
2022-09-04T02:45:09.883Z,98933.63
2022-09-04T02:48:04.062Z,98929.94
2022-09-04T02:50:50.417Z,98940.59
2022-09-04T02:53:41.735Z,98936.44
2022-09-04T02:56:35.994Z,98949.09
2022-09-04T02:59:21.583Z,98947.03
2022-09-04T03:02:00.903Z,98947.59
2022-09-04T03:04:35.802Z,98947.41
2022-09-04T03:07:26.022Z,98948.78
2022-09-04T03:10:21.810Z,98951.56
2022-09-04T03:12:53.861Z,98946.59
2022-09-04T03:15:50.555Z,98946.16
2022-09-04T03:18:29.649Z,98949.06
2022-09-04T03:21:16.474Z,98947.41
2022-09-04T03:23:58.870Z,98953.34
2022-09-04T03:26:48.374Z,98955.22
2022-09-04T03:29:14.901Z,98955.34
2022-09-04T03:32:18.854Z,98961.28
2022-09-04T03:34:59.517Z,98954.66
2022-09-04T03:37:31.942Z,98947.47
2022-09-04T03:40:19.693Z,98951.78
2022-09-04T03:43:07.123Z,98955.25
2022-09-04T03:45:48.274Z,98951.53
2022-09-04T03:48:23.675Z,98962.78
2022-09-04T03:51:04.243Z,98951.53
2022-09-04T03:53:35.846Z,98957.78
2022-09-04T03:56:45.278Z,98957.44
2022-09-04T03:59:31.147Z,98965.06
2022-09-04T04:02:39.307Z,98962.41
2022-09-04T04:05:27.347Z,98965.88
2022-09-04T04:08:15.364Z,98966.94
2022-09-04T04:10:45.558Z,98974.09
2022-09-04T04:13:36.583Z,98973.88
2022-09-04T04:16:31.223Z,98977.13
2022-09-04T04:19:10.750Z,98978.63
2022-09-04T04:21:55.498Z,98982.66
2022-09-04T04:24:41.403Z,98986.88
2022-09-04T04:27:36.076Z,98988.66
2022-09-04T04:30:07.105Z,98986.28
2022-09-04T04:32:51.550Z,98989.88
2022-09-04T04:35:25.048Z,98999.13
2022-09-04T04:38:07.617Z,99002.97
2022-09-04T04:40:50.116Z,99006.44
2022-09-04T04:43:40.851Z,99009.09
2022-09-04T04:46:34.743Z,99011.78
2022-09-04T04:49:28.474Z,99011.78
2022-09-04T04:52:32.619Z,99013.63
2022-09-04T04:55:21.330Z,99012.69
2022-09-04T04:58:06.155Z,99030.28
2022-09-04T05:00:45.451Z,99020.00
2022-09-04T05:03:43.046Z,99022.22
2022-09-04T05:06:36.323Z,99035.31
2022-09-04T05:09:23.493Z,99033.28
2022-09-04T05:12:00.301Z,99042.47
2022-09-04T05:14:38.639Z,99036.09
2022-09-04T05:17:17.198Z,99043.28
2022-09-04T05:20:34.968Z,99044.91
2022-09-04T05:23:29.613Z,99039.13
2022-09-04T05:26:33.134Z,99049.34
2022-09-04T05:29:37.021Z,99051.19
2022-09-04T05:32:28.859Z,99063.50
2022-09-04T05:35:17.837Z,99065.25
2022-09-04T05:38:22.397Z,99064.75
2022-09-04T05:41:07.667Z,99075.94
2022-09-04T05:43:50.042Z,99085.03
2022-09-04T05:46:19.330Z,99085.91
2022-09-04T05:49:05.880Z,99080.88
2022-09-04T05:52:04.733Z,99083.47
2022-09-04T05:54:59.151Z,99086.19
2022-09-04T05:57:37.870Z,99085.44
2022-09-04T06:00:16.414Z,99095.22
2022-09-04T06:03:20.752Z,99091.63
2022-09-04T06:06:24.715Z,99094.78
2022-09-04T06:09:28.664Z,99096.41
2022-09-04T06:12:28.878Z,99098.13
2022-09-04T06:15:32.944Z,99100.81
2022-09-04T06:18:18.294Z,99107.94
2022-09-04T06:21:43.881Z,99108.41
2022-09-04T06:24:19.238Z,99112.47
2022-09-04T06:27:23.351Z,99111.56
2022-09-04T06:29:53.122Z,99115.41
2022-09-04T06:32:19.555Z,99109.13
2022-09-04T06:35:09.461Z,99117.19
2022-09-04T06:38:01.340Z,99128.94
2022-09-04T06:40:43.092Z,99132.47
2022-09-04T06:43:32.636Z,99129.56
2022-09-04T06:46:29.852Z,99130.63
2022-09-04T06:49:18.912Z,99131.88
2022-09-04T06:51:57.617Z,99132.94
2022-09-04T06:54:46.364Z,99134.31
2022-09-04T06:57:25.930Z,99132.09
2022-09-04T06:59:58.461Z,99144.66
2022-09-04T07:02:28.889Z,99144.09
2022-09-04T07:05:17.854Z,99138.97
2022-09-04T07:08:13.124Z,99141.78
2022-09-04T07:11:14.677Z,99140.38
2022-09-04T07:14:16.998Z,99133.59
2022-09-04T07:17:05.974Z,99142.41
2022-09-04T07:19:35.117Z,99146.69
2022-09-04T07:22:07.006Z,99142.66
2022-09-04T07:24:52.320Z,99151.91
2022-09-04T07:28:00.372Z,99157.03
2022-09-04T07:30:31.715Z,99158.44
2022-09-04T07:33:07.249Z,99159.81
2022-09-04T07:35:39.302Z,99160.16
2022-09-04T07:38:36.461Z,99163.50
2022-09-04T07:41:21.707Z,99163.38
2022-09-04T07:44:05.051Z,99165.16
2022-09-04T07:46:50.595Z,99163.75
2022-09-04T07:49:30.476Z,99172.69
2022-09-04T07:52:25.974Z,99176.44
2022-09-04T07:55:22.230Z,99172.13
2022-09-04T07:58:14.730Z,99176.75
2022-09-04T08:01:01.244Z,99182.53
2022-09-04T08:04:00.203Z,99185.38
2022-09-04T08:06:37.709Z,99182.13
2022-09-04T08:09:23.156Z,99182.53
2022-09-04T08:12:11.765Z,99191.31
2022-09-04T08:14:45.838Z,99196.00
2022-09-04T08:17:42.999Z,99197.22
2022-09-04T08:20:17.044Z,99202.75
2022-09-04T08:23:01.940Z,99194.84
2022-09-04T08:25:40.549Z,99206.00
2022-09-04T08:28:25.140Z,99203.44
2022-09-04T08:31:08.067Z,99205.25
2022-09-04T08:33:37.321Z,99203.22
2022-09-04T08:36:11.010Z,99203.00
2022-09-04T08:38:56.573Z,99205.03
2022-09-04T08:41:36.128Z,99208.09
2022-09-04T08:44:36.486Z,99212.72
2022-09-04T08:47:28.448Z,99210.41
2022-09-04T08:50:10.025Z,99214.25
2022-09-04T08:53:03.895Z,99213.31
2022-09-04T08:55:58.637Z,99216.38
2022-09-04T08:58:49.506Z,99213.56
2022-09-04T09:01:44.841Z,99225.47
2022-09-04T09:04:19.662Z,99215.34
2022-09-04T09:07:03.329Z,99216.75
2022-09-04T09:09:32.707Z,99219.78
2022-09-04T09:12:57.273Z,99223.63
2022-09-04T09:15:51.604Z,99225.09
2022-09-04T09:18:41.472Z,99223.56
2022-09-04T09:21:31.320Z,99221.47
2022-09-04T09:24:14.084Z,99221.56
2022-09-04T09:27:14.749Z,99224.88
2022-09-04T09:29:53.030Z,99221.41
2022-09-04T09:32:41.345Z,99219.84
2022-09-04T09:35:26.405Z,99224.19
2022-09-04T09:38:20.497Z,99214.25
2022-09-04T09:41:14.607Z,99211.06
2022-09-04T09:44:09.041Z,99208.16
2022-09-04T09:46:50.492Z,99212.84
2022-09-04T09:49:50.774Z,99212.34
2022-09-04T09:52:51.545Z,99205.06
2022-09-04T09:55:36.715Z,99201.03
2022-09-04T09:58:34.077Z,99210.50
2022-09-04T10:01:09.137Z,99203.78
2022-09-04T10:04:11.537Z,99202.94
2022-09-04T10:07:17.357Z,99190.56
2022-09-04T10:10:04.135Z,99192.13
2022-09-04T10:12:59.679Z,99193.47
2022-09-04T10:15:45.396Z,99202.06
2022-09-04T10:19:05.688Z,99195.34
2022-09-04T10:21:50.354Z,99199.09
2022-09-04T10:24:44.211Z,99206.59
2022-09-04T10:27:10.590Z,99198.50
2022-09-04T10:30:00.934Z,99203.09
2022-09-04T10:32:33.043Z,99205.78
2022-09-04T10:35:03.160Z,99203.91
2022-09-04T10:37:47.494Z,99201.03
2022-09-04T10:40:43.359Z,99202.69
2022-09-04T10:43:30.363Z,99198.66
2022-09-04T10:46:26.093Z,99198.72
2022-09-04T10:48:58.657Z,99195.75
2022-09-04T10:51:39.448Z,99199.53
2022-09-04T10:54:30.873Z,99197.13
2022-09-04T10:57:31.407Z,99198.72
2022-09-04T11:00:32.961Z,99192.50
2022-09-04T11:03:29.106Z,99194.09
2022-09-04T11:06:17.608Z,99186.78
2022-09-04T11:09:10.768Z,99191.94
2022-09-04T11:11:52.791Z,99188.16
2022-09-04T11:14:54.155Z,99179.28
2022-09-04T11:17:58.776Z,99177.91
2022-09-04T11:20:45.650Z,99186.53
2022-09-04T11:23:19.108Z,99181.91
2022-09-04T11:26:13.879Z,99173.56
2022-09-04T11:28:51.255Z,99174.34
2022-09-04T11:31:32.228Z,99175.13
2022-09-04T11:34:30.806Z,99171.34
2022-09-04T11:37:29.424Z,99170.28
2022-09-04T11:40:08.956Z,99178.38
2022-09-04T11:43:14.104Z,99164.84
2022-09-04T11:45:56.472Z,99162.69
2022-09-04T11:48:53.359Z,99158.34
2022-09-04T11:51:34.416Z,99161.19
2022-09-04T11:54:11.999Z,99163.78
2022-09-04T11:56:54.234Z,99165.22
2022-09-04T11:59:33.012Z,99167.75
2022-09-04T12:02:23.983Z,99163.53
2022-09-04T12:04:53.550Z,99164.22
2022-09-04T12:07:43.424Z,99170.84
2022-09-04T12:10:10.201Z,99169.38
2022-09-04T12:12:58.717Z,99169.44
2022-09-04T12:15:35.661Z,99174.50
2022-09-04T12:18:33.487Z,99166.56
2022-09-04T12:21:18.149Z,99163.59
2022-09-04T12:24:07.182Z,99167.44
2022-09-04T12:27:11.901Z,99179.41
2022-09-04T12:29:47.440Z,99169.75
2022-09-04T12:32:26.251Z,99163.28
2022-09-04T12:34:58.458Z,99166.25
2022-09-04T12:37:36.206Z,99167.38
2022-09-04T12:40:51.003Z,99163.56
2022-09-04T12:43:25.528Z,99161.59
2022-09-04T12:46:04.139Z,99153.28
2022-09-04T12:48:46.772Z,99164.31
2022-09-04T12:51:25.108Z,99165.72
2022-09-04T12:53:57.950Z,99169.28
2022-09-04T12:56:48.178Z,99164.91
2022-09-04T12:59:31.497Z,99160.94
2022-09-04T13:02:12.290Z,99160.47
2022-09-04T13:04:57.362Z,99171.34
2022-09-04T13:07:48.606Z,99162.72
2022-09-04T13:10:23.949Z,99154.19
2022-09-04T13:13:23.752Z,99165.97
2022-09-04T13:16:30.904Z,99167.25
2022-09-04T13:19:14.948Z,99166.34
2022-09-04T13:22:23.432Z,99162.44
2022-09-04T13:25:11.545Z,99158.81
2022-09-04T13:27:59.941Z,99162.13
2022-09-04T13:30:29.360Z,99153.31
2022-09-04T13:33:11.137Z,99157.56
2022-09-04T13:35:58.971Z,99153.16
2022-09-04T13:38:37.582Z,99144.59
2022-09-04T13:41:16.135Z,99146.72
2022-09-04T13:44:05.540Z,99154.88
2022-09-04T13:46:41.286Z,99154.88
2022-09-04T13:49:18.161Z,99146.72
2022-09-04T13:51:51.609Z,99140.69
2022-09-04T13:54:31.870Z,99141.28
2022-09-04T13:57:10.231Z,99146.94
2022-09-04T13:59:38.296Z,99140.56
2022-09-04T14:02:12.372Z,99143.38
2022-09-04T14:04:44.122Z,99139.56
2022-09-04T14:07:18.827Z,99135.44
2022-09-04T14:09:48.100Z,99134.59
2022-09-04T14:12:40.067Z,99127.75
2022-09-04T14:15:19.431Z,99129.06
2022-09-04T14:18:14.124Z,99125.63
2022-09-04T14:20:57.867Z,99129.25
2022-09-04T14:23:47.507Z,99131.03
2022-09-04T14:26:24.304Z,99130.25
2022-09-04T14:29:15.669Z,99131.97
2022-09-04T14:31:58.995Z,99134.88
2022-09-04T14:34:46.709Z,99139.22
2022-09-04T14:37:23.939Z,99139.22
2022-09-04T14:40:05.923Z,99135.44
2022-09-04T14:42:44.270Z,99133.72
2022-09-04T14:45:48.966Z,99134.84
2022-09-04T14:48:17.653Z,99133.91
2022-09-04T14:50:54.265Z,99135.53
2022-09-04T14:53:26.302Z,99134.22
2022-09-04T14:56:17.765Z,99134.22
2022-09-04T14:58:51.063Z,99120.50
2022-09-04T15:01:25.192Z,99128.13
2022-09-04T15:04:10.227Z,99134.16
2022-09-04T15:07:07.752Z,99131.38
2022-09-04T15:09:41.040Z,99129.41
2022-09-04T15:12:35.991Z,99133.66
2022-09-04T15:15:27.270Z,99136.69
2022-09-04T15:18:19.930Z,99134.16
2022-09-04T15:21:21.144Z,99125.75
2022-09-04T15:24:03.568Z,99119.69
2022-09-04T15:26:37.523Z,99117.91
2022-09-04T15:29:20.322Z,99117.56
2022-09-04T15:31:47.002Z,99121.81
2022-09-04T15:34:24.292Z,99131.75
2022-09-04T15:36:50.826Z,99128.53
2022-09-04T15:39:58.502Z,99126.75
2022-09-04T15:42:46.469Z,99127.53
2022-09-04T15:45:23.529Z,99130.66
2022-09-04T15:48:11.099Z,99125.25
2022-09-04T15:50:56.744Z,99125.31
2022-09-04T15:53:29.062Z,99121.88
2022-09-04T15:56:23.659Z,99122.94
2022-09-04T15:59:10.030Z,99117.50
2022-09-04T16:02:00.474Z,99117.84
2022-09-04T16:04:52.622Z,99114.50
2022-09-04T16:07:50.380Z,99113.38
2022-09-04T16:10:30.427Z,99117.72
2022-09-04T16:13:08.036Z,99118.16
2022-09-04T16:15:40.575Z,99107.88
2022-09-04T16:18:18.444Z,99103.88
2022-09-04T16:20:51.594Z,99107.41
2022-09-04T16:23:28.636Z,99107.06
2022-09-04T16:25:59.720Z,99107.25
2022-09-04T16:28:34.798Z,99096.03
2022-09-04T16:31:04.452Z,99096.84
2022-09-04T16:33:33.059Z,99097.66
2022-09-04T16:36:06.166Z,99093.63
2022-09-04T16:38:47.662Z,99096.31
2022-09-04T16:41:26.312Z,99093.78
2022-09-04T16:44:16.643Z,99090.09
2022-09-04T16:47:13.012Z,99093.81
2022-09-04T16:49:51.278Z,99081.75
2022-09-04T16:52:21.895Z,99087.63
2022-09-04T16:55:11.406Z,99080.41
2022-09-04T16:58:07.149Z,99081.16
2022-09-04T17:01:12.862Z,99078.53
2022-09-04T17:04:13.778Z,99082.75
2022-09-04T17:07:21.590Z,99077.00
2022-09-04T17:10:03.919Z,99082.47
2022-09-04T17:12:55.383Z,99078.53
2022-09-04T17:15:28.943Z,99083.41
2022-09-04T17:17:57.131Z,99084.50
2022-09-04T17:23:57.665Z,99086.81
2022-09-04T17:28:56.458Z,99089.25
2022-09-04T17:28:56.584Z,99082.84
2022-09-04T17:29:41.724Z,99089.69
2022-09-04T17:32:51.496Z,99083.91
2022-09-04T17:40:32.145Z,99086.19
2022-09-04T17:40:53.606Z,99088.03
2022-09-04T17:42:09.247Z,99086.69
2022-09-04T17:45:01.445Z,99093.47
2022-09-04T17:47:33.180Z,99101.44
2022-09-04T17:50:01.560Z,99106.00
2022-09-04T17:52:53.245Z,99100.50
2022-09-04T17:55:20.794Z,99108.06
2022-09-04T17:58:03.443Z,99109.06
2022-09-04T18:00:38.376Z,99113.59
2022-09-04T18:03:33.201Z,99113.22
2022-09-04T18:06:05.494Z,99121.78
2022-09-04T18:08:50.319Z,99121.88
2022-09-04T18:11:22.859Z,99122.50
2022-09-04T18:14:12.933Z,99116.88
2022-09-04T18:17:26.155Z,99128.03
2022-09-04T18:20:06.464Z,99130.53
2022-09-04T18:22:45.032Z,99134.91
2022-09-04T18:25:18.600Z,99135.22
2022-09-04T18:28:12.431Z,99140.66
2022-09-04T18:37:11.981Z,99148.75
2022-09-04T18:37:17.020Z,99150.69
2022-09-04T18:37:26.560Z,99151.22
2022-09-04T18:40:05.978Z,99160.91
2022-09-04T18:50:30.746Z,99163.34
2022-09-04T18:50:39.984Z,99170.56
2022-09-04T18:50:44.807Z,99169.78
2022-09-04T18:51:30.553Z,99179.44
2022-09-04T18:54:10.977Z,99177.50
2022-09-04T18:56:47.909Z,99180.72
2022-09-04T18:59:32.784Z,99182.31
2022-09-04T19:02:13.654Z,99187.13
2022-09-04T19:04:51.189Z,99190.88
2022-09-04T19:07:35.523Z,99186.53
2022-09-04T19:10:25.423Z,99184.91
2022-09-04T19:12:52.360Z,99188.63
2022-09-04T19:15:49.782Z,99190.19
2022-09-04T19:18:46.236Z,99195.78
2022-09-04T19:21:25.028Z,99201.34
2022-09-04T19:23:59.758Z,99197.53
2022-09-04T19:26:44.414Z,99194.22
2022-09-04T19:29:26.907Z,99197.38
2022-09-04T19:32:08.343Z,99200.31
2022-09-04T19:34:49.369Z,99203.22
2022-09-04T19:40:30.156Z,99206.13
2022-09-04T19:46:07.335Z,99204.44
2022-09-04T19:46:17.788Z,99204.91
2022-09-04T19:46:44.284Z,99204.31
2022-09-04T19:52:41.625Z,99210.97
2022-09-04T19:53:34.662Z,99206.31
2022-09-04T19:55:55.574Z,99209.13
2022-09-04T19:58:26.579Z,99212.25
2022-09-04T20:01:00.078Z,99214.03
2022-09-04T20:03:33.224Z,99206.41
2022-09-04T20:06:22.299Z,99206.84
2022-09-04T20:09:05.292Z,99218.25
2022-09-04T20:11:40.097Z,99213.91
2022-09-04T20:14:31.551Z,99213.00
2022-09-04T20:17:14.971Z,99205.69
2022-09-04T20:19:47.223Z,99213.94
2022-09-04T20:22:29.608Z,99219.22
2022-09-04T20:25:14.979Z,99219.44
2022-09-04T20:27:47.427Z,99219.09
2022-09-04T20:30:20.041Z,99212.56
2022-09-04T20:33:05.982Z,99216.56
2022-09-04T20:35:40.108Z,99226.75
2022-09-04T20:38:23.018Z,99221.84
2022-09-04T20:41:09.119Z,99227.16
2022-09-04T20:43:50.998Z,99227.06
2022-09-04T20:52:40.804Z,99228.88
2022-09-04T20:52:49.297Z,99230.41
2022-09-04T20:52:52.602Z,99224.72
2022-09-04T20:55:31.150Z,99227.88
2022-09-04T21:03:06.440Z,99234.97
2022-09-04T21:03:11.155Z,99235.03
2022-09-04T21:04:18.541Z,99240.81
2022-09-04T21:07:20.405Z,99239.34
2022-09-04T21:10:08.173Z,99241.94
2022-09-04T21:12:52.760Z,99245.91
2022-09-04T21:15:51.628Z,99243.56
2022-09-04T21:19:13.012Z,99240.47
2022-09-04T21:22:00.170Z,99238.41
2022-09-04T21:24:40.809Z,99238.31
2022-09-04T21:27:34.651Z,99239.63
2022-09-04T21:30:05.697Z,99249.09
2022-09-04T21:32:49.246Z,99248.63
2022-09-04T21:35:20.193Z,99250.50
2022-09-04T21:38:24.264Z,99255.28
2022-09-04T21:41:24.451Z,99259.25
2022-09-04T21:44:11.114Z,99263.44
2022-09-04T21:46:51.527Z,99274.88
2022-09-04T21:49:42.995Z,99271.03
2022-09-04T21:52:27.994Z,99272.22
2022-09-04T21:57:17.592Z,99269.34
2022-09-04T22:02:39.549Z,99277.44
2022-09-04T22:02:45.028Z,99279.59
2022-09-04T22:04:35.272Z,99274.66
2022-09-04T22:10:38.505Z,99274.66
2022-09-04T22:13:29.663Z,99275.72
2022-09-04T22:13:47.829Z,99279.41
2022-09-04T22:16:37.821Z,99282.34
2022-09-04T22:19:16.255Z,99287.47
2022-09-04T22:21:46.502Z,99290.47
2022-09-04T22:24:41.012Z,99279.63
2022-09-04T22:28:08.231Z,99288.16
2022-09-04T22:30:37.761Z,99291.97
2022-09-04T22:33:32.456Z,99282.41
2022-09-04T22:36:20.952Z,99289.25
2022-09-04T22:39:15.213Z,99290.53
2022-09-04T22:42:01.346Z,99290.41
2022-09-04T22:44:49.069Z,99289.69
2022-09-04T22:47:50.377Z,99286.44
2022-09-04T22:50:49.677Z,99282.59
2022-09-04T22:53:52.117Z,99283.84
2022-09-04T22:56:53.558Z,99290.81
2022-09-04T22:59:35.439Z,99292.09
2022-09-04T23:02:17.235Z,99292.16
2022-09-04T23:05:05.533Z,99291.22
2022-09-04T23:13:43.837Z,99285.25
2022-09-04T23:13:54.384Z,99280.34
2022-09-04T23:14:23.796Z,99292.91
2022-09-04T23:17:19.770Z,99292.56
2022-09-04T23:26:33.395Z,99288.25
2022-09-04T23:26:42.367Z,99289.75
2022-09-04T23:27:00.387Z,99283.09
2022-09-04T23:30:03.877Z,99285.03
2022-09-04T23:32:53.803Z,99287.56
2022-09-04T23:35:35.429Z,99287.78
2022-09-04T23:38:38.884Z,99289.41
2022-09-04T23:41:20.685Z,99286.94
2022-09-04T23:44:11.345Z,99285.56
2022-09-04T23:47:20.703Z,99279.47
2022-09-04T23:50:09.090Z,99290.69
2022-09-04T23:52:54.654Z,99285.34
2022-09-04T23:55:49.781Z,99285.19
2022-09-04T23:58:47.137Z,99287.03
